Weather at Phoenix Goodyear Airport

Public forecast

Using degrees Fahrenheit for public forecast. Weather courtesy of forecast.io.

Current aviation weather report (METAR) for Phoenix Goodyear Airport

Retrieved 2021/09/17 03:47 UTC (21 minutes ago):

KGYR 170347Z 00000KT 10SM SKC 33/12 A2975 RMK LAST

Closest aviation forecast (TAF) to Phoenix Goodyear Airport

Closest forecast is Luke Air Force Base, 6.8 nm (12.5 km) N. Retrieved 2021-09-17 04:21 UTC (0 seconds ago):

TAF TAF KLUF 170400Z 1704/1810 VRB06KT 9999 FEW150 QNH2972INS BECMG 1714/1715 22010G15KT 9999 VCSH FEW090 SCT120 BKN150 QNH2988INS TEMPO 1718/1722 VRB15G25KT 8000 -SHRA BECMG 1722/1723 22012KT 9999 NSW BKN180 QNH2983INS WND VRB06KT AFT 1802 TX39/1723Z TN22/1712Z